Maimiti — PBIJ — position and weather

sailwx.info

Track history (hours):
 
Tides and Currents Weather Stations Pressure Air Temp Water Temp Dewpoint Dewpoint Depression Visibility Wind Speed Wind Dir Waves Ship Positions

Maimiti

Last reported at 2018-Apr-22 14:30 UTC. Time now 2018-Apr-22 14:44 UTC.
Position N 51°27' E 003°43'.

Length 35 m; draft 6.6 m.

Type: Tug. MMSI: 244850959.

Date/timePositionNaut miles runAvg speedWind from/ knotsBaromVisibWave heightAir tempDewpointWater temp
2018-Apr-22 14:30N 51°27' E 003°43'2 3.5
2018-Apr-22 14:00N 51°28' E 003°40'0 0.0
2018-Apr-22 13:30N 51°28' E 003°40'0 0.0
2018-Apr-22 13:00N 51°28' E 003°40'0 0.0
2018-Apr-22 12:30N 51°28' E 003°40'0 0.1
2018-Apr-22 12:00N 51°28' E 003°40'0 0.1
2018-Apr-22 11:30N 51°28' E 003°40'0 0.0
2018-Apr-22 11:00N 51°28' E 003°40'0 0.0
2018-Apr-22 10:30N 51°28' E 003°40'0 0.1
2018-Apr-22 10:00N 51°28' E 003°40'0 0.4
2018-Apr-22 09:30N 51°27' E 003°41'0 0.3
2018-Apr-22 09:00N 51°28' E 003°40'0 0.3
2018-Apr-22 08:30N 51°28' E 003°40'0 0.0
2018-Apr-22 08:00N 51°28' E 003°40'3 6.7
2018-Apr-22 07:30N 51°25' E 003°43'4 8.2
2018-Apr-22 07:00N 51°22' E 003°47'3 6.2
2018-Apr-22 06:30N 51°21' E 003°52'1 1.3
2018-Apr-22 06:00N 51°21' E 003°51'4 7.5
2018-Apr-22 05:30N 51°22' E 003°45'4 7.6
2018-Apr-22 05:00N 51°25' E 003°42'2 4.4
2018-Apr-22 04:30N 51°27' E 003°42'1 1.4
2018-Apr-22 04:00N 51°27' E 003°42'1 2.8
2018-Apr-22 03:30N 51°28' E 003°40'0 0.0
2018-Apr-22 02:57N 51°28' E 003°40'0 0.0
2018-Apr-22 02:28N 51°28' E 003°40'0 0.0
2018-Apr-22 02:00N 51°28' E 003°40'0 0.0
2018-Apr-22 01:30N 51°28' E 003°40'0 0.0
2018-Apr-22 01:00N 51°28' E 003°40'0 0.0
2018-Apr-22 00:26N 51°28' E 003°40'0 0.0
2018-Apr-22 00:00N 51°28' E 003°40'0 0.0
2018-Apr-21 23:30N 51°28' E 003°40'0 0.1
2018-Apr-21 23:00N 51°28' E 003°40'0 0.1
2018-Apr-21 22:29N 51°28' E 003°40'0 0.0
2018-Apr-21 22:00N 51°28' E 003°40'0 0.0
2018-Apr-21 21:28N 51°28' E 003°40'0 0.0
2018-Apr-21 20:59N 51°28' E 003°40'0 0.0
2018-Apr-21 20:30N 51°28' E 003°40'0 0.0
2018-Apr-21 20:00N 51°28' E 003°40'0 0.0
2018-Apr-21 18:51N 51°28' E 003°40'0 0.0
2018-Apr-21 18:26N 51°28' E 003°40'0 0.0
2018-Apr-21 17:59N 51°28' E 003°40'0 0.0
2018-Apr-21 17:30N 51°28' E 003°40'0 0.0
2018-Apr-21 16:57N 51°28' E 003°40'0 0.0
2018-Apr-21 16:29N 51°28' E 003°40'0 0.0
2018-Apr-21 16:00N 51°28' E 003°40'0 0.0
2018-Apr-21 15:28N 51°28' E 003°40'0 0.1
2018-Apr-21 15:00N 51°28' E 003°40'0 0.1
2018-Apr-21 14:27N 51°28' E 003°40'0 0.0
2018-Apr-21 14:00N 51°28' E 003°40'0 0.0
2018-Apr-21 13:29N 51°28' E 003°40'0 0.0
2018-Apr-21 12:52N 51°28' E 003°40'1 1.6
2018-Apr-21 12:30N 51°27' E 003°41'1 1.3
2018-Apr-21 12:00N 51°27' E 003°40'1 1.0
2018-Apr-21 11:29N 51°28' E 003°40'0 0.0
2018-Apr-21 10:47N 51°28' E 003°40'0 0.0
2018-Apr-21 10:29N 51°28' E 003°40'0 0.0
2018-Apr-21 10:00N 51°28' E 003°40'0 0.0
2018-Apr-21 09:24N 51°28' E 003°40'0 0.5
2018-Apr-21 09:00N 51°27' E 003°41'0 0.3
2018-Apr-21 08:30N 51°28' E 003°41'0 0.2
2018-Apr-21 08:00N 51°28' E 003°40'0 0.0
2018-Apr-21 07:18N 51°28' E 003°40'0 0.0
2018-Apr-21 07:00N 51°28' E 003°40'0 0.0
2018-Apr-21 06:30N 51°28' E 003°40'0 0.0
2018-Apr-21 05:41N 51°28' E 003°40'0 0.0
2018-Apr-21 05:30N 51°28' E 003°40'0 0.0
2018-Apr-21 05:00N 51°28' E 003°40'0 0.0
2018-Apr-21 04:29N 51°28' E 003°40'0 0.0
2018-Apr-21 03:56N 51°28' E 003°40'0 0.0
2018-Apr-21 03:25N 51°28' E 003°40'0 0.0
2018-Apr-21 02:55N 51°28' E 003°40'0 0.0
2018-Apr-21 02:28N 51°28' E 003°40'0 0.0
2018-Apr-21 01:58N 51°28' E 003°40'0 0.0
2018-Apr-21 01:29N 51°28' E 003°40'0 0.0
2018-Apr-21 00:57N 51°28' E 003°40'0 0.0
2018-Apr-21 00:18N 51°28' E 003°40'0 0.0
2018-Apr-21 00:00N 51°28' E 003°40'0 0.0
2018-Apr-20 23:30N 51°28' E 003°40'0 0.0
2018-Apr-20 23:00N 51°28' E 003°40'0 0.0
2018-Apr-20 22:27N 51°28' E 003°40'0 0.0
2018-Apr-20 21:58N 51°28' E 003°40'0 0.0
2018-Apr-20 21:30N 51°28' E 003°40'0 0.0
2018-Apr-20 21:00N 51°28' E 003°40'0 0.2
2018-Apr-20 20:30N 51°28' E 003°41'3 6.8
2018-Apr-20 20:00N 51°26' E 003°36'3 6.7
2018-Apr-20 19:30N 51°27' E 003°31'4 7.4
2018-Apr-20 18:58N 51°31' E 003°27'3 7.4
2018-Apr-20 18:30N 51°34' E 003°25'7 8.5
2018-Apr-20 17:43N 51°39' E 003°19'2 9.0
2018-Apr-20 17:28N 51°41' E 003°17'4 8.9
2018-Apr-20 16:59N 51°45' E 003°13'71 9.7
2018-Apr-20 09:42N 52°40' E 001°60'212.3
2018-Apr-20 09:30N 52°41' E 001°57'611.0
2018-Apr-20 09:00N 52°46' E 001°52'610.8
2018-Apr-20 08:29N 52°50' E 001°45'510.2
2018-Apr-20 08:00N 52°53' E 001°39'510.2
2018-Apr-20 07:31N 52°56' E 001°32'510.3
2018-Apr-20 07:00N 52°59' E 001°25'5 9.6
2018-Apr-20 06:31N 53°02' E 001°19'4 8.8
2018-Apr-20 06:00N 53°04' E 001°12'41 2.6
2018-Apr-19 14:07N 53°38' E 000°34'0 1.0
2018-Apr-19 13:51N 53°38' E 000°33'0 1.3
2018-Apr-19 13:30N 53°37' E 000°33'1 1.3
2018-Apr-19 12:57N 53°37' E 000°32'0 0.7
2018-Apr-19 12:30N 53°37' E 000°31'1 0.9
2018-Apr-19 11:10N 53°36' E 000°30'0 1.0
2018-Apr-19 11:00N 53°36' E 000°30'18 2.7
2018-Apr-19 04:14N 53°28' E 000°58'1 4.3
2018-Apr-19 04:00N 53°27' E 000°60'3 4.8
2018-Apr-19 03:27N 53°26' E 001°03'3 6.0
2018-Apr-19 03:00N 53°24' E 001°06'3 6.3
2018-Apr-19 02:27N 53°21' E 001°09'3 6.4
2018-Apr-19 02:00N 53°18' E 001°11'3 6.1
2018-Apr-19 01:30N 53°16' E 001°14'3 5.9
2018-Apr-19 01:00N 53°13' E 001°17'3 5.3
2018-Apr-19 00:29N 53°12' E 001°21'2 4.6
2018-Apr-19 00:00N 53°10' E 001°24'2 4.0
2018-Apr-18 23:30N 53°09' E 001°26'2 3.2
2018-Apr-18 22:59N 53°08' E 001°28'1 2.7
2018-Apr-18 22:30N 53°07' E 001°30'1 2.3
2018-Apr-18 22:00N 53°06' E 001°31'1 2.0
2018-Apr-18 21:30N 53°05' E 001°32'1 1.9
2018-Apr-18 21:00N 53°05' E 001°33'1 1.8
2018-Apr-18 20:30N 53°04' E 001°35'1 1.8
2018-Apr-18 20:00N 53°03' E 001°36'1 2.3
2018-Apr-18 19:30N 53°03' E 001°37'1 2.9
2018-Apr-18 19:00N 53°02' E 001°39'2 3.6
2018-Apr-18 18:30N 53°00' E 001°41'2 3.8
2018-Apr-18 18:00N 52°59' E 001°44'2 4.4
2018-Apr-18 17:30N 52°58' E 001°47'3 5.2
2018-Apr-18 17:00N 52°57' E 001°51'7 5.5
2018-Apr-18 15:39N 52°54' E 002°02'1 6.1
2018-Apr-18 15:29N 52°53' E 002°03'  
2018-Apr-13 06:48N 55°28' E 006°49'3 8.1
2018-Apr-13 06:29N 55°28' E 006°53'4 8.1
2018-Apr-13 06:00N 55°28' E 007°00'4 8.1
2018-Apr-13 05:30N 55°28' E 007°07'4 8.2
2018-Apr-13 05:00N 55°27' E 007°14'4 8.3
2018-Apr-13 04:30N 55°27' E 007°22'4 8.0
2018-Apr-13 04:00N 55°27' E 007°29'4 8.3
2018-Apr-13 03:30N 55°26' E 007°36'4 8.5
2018-Apr-13 02:59N 55°26' E 007°44'4 8.7
2018-Apr-13 02:30N 55°26' E 007°51'4 8.7
2018-Apr-13 02:00N 55°25' E 007°59'4 8.6
2018-Apr-13 01:30N 55°25' E 008°06'4 8.2
2018-Apr-13 01:00N 55°25' E 008°14'4 8.5
2018-Apr-13 00:30N 55°28' E 008°20'3 6.9
2018-Apr-13 00:00N 55°28' E 008°26'0 0.6
2018-Apr-12 23:29N 55°28' E 008°26'0 0.0
2018-Apr-12 22:59N 55°28' E 008°26'0 0.0
2018-Apr-12 22:29N 55°28' E 008°26'0 0.0
2018-Apr-12 21:59N 55°28' E 008°26'0 0.0
2018-Apr-12 21:29N 55°28' E 008°26'0 0.0
2018-Apr-12 20:35N 55°28' E 008°26'0 0.0
2018-Apr-12 20:17N 55°28' E 008°26'0 0.0
2018-Apr-12 19:50N 55°28' E 008°26'0 0.0
2018-Apr-12 19:02N 55°28' E 008°26'0 0.0
2018-Apr-12 18:47N 55°28' E 008°26'0 0.0
2018-Apr-12 18:23N 55°28' E 008°26'0 0.0
2018-Apr-12 17:47N 55°28' E 008°26'0 0.0
2018-Apr-12 17:23N 55°28' E 008°26'0 0.0
2018-Apr-12 16:47N 55°28' E 008°26'0 0.0
2018-Apr-12 16:23N 55°28' E 008°26'0 0.0
2018-Apr-12 15:53N 55°28' E 008°26'0 0.0
2018-Apr-12 14:37N 55°28' E 008°26'  
Track history (hours):
 
Tides and Currents Weather Stations Pressure Air Temp Water Temp Dewpoint Dewpoint Depression Visibility Wind Speed Wind Dir Waves Ship Positions

Maimiti

Last reported at 2018-Apr-22 14:30 UTC. Time now 2018-Apr-22 14:44 UTC.
Position N 51°27' E 003°43'.

Length 35 m; draft 6.6 m.

Type: Tug. MMSI: 244850959.

Date/timePositionNaut miles runAvg speedWind from/ knotsBaromVisibWave heightAir tempDewpointWater temp
2018-Apr-22 14:30N 51°27' E 003°43'2 3.5
2018-Apr-22 14:00N 51°28' E 003°40'0 0.0
2018-Apr-22 13:30N 51°28' E 003°40'0 0.0
2018-Apr-22 13:00N 51°28' E 003°40'0 0.0
2018-Apr-22 12:30N 51°28' E 003°40'0 0.1
2018-Apr-22 12:00N 51°28' E 003°40'0 0.1
2018-Apr-22 11:30N 51°28' E 003°40'0 0.0
2018-Apr-22 11:00N 51°28' E 003°40'0 0.0
2018-Apr-22 10:30N 51°28' E 003°40'0 0.1
2018-Apr-22 10:00N 51°28' E 003°40'0 0.4
2018-Apr-22 09:30N 51°27' E 003°41'0 0.3
2018-Apr-22 09:00N 51°28' E 003°40'0 0.3
2018-Apr-22 08:30N 51°28' E 003°40'0 0.0
2018-Apr-22 08:00N 51°28' E 003°40'3 6.7
2018-Apr-22 07:30N 51°25' E 003°43'4 8.2
2018-Apr-22 07:00N 51°22' E 003°47'3 6.2
2018-Apr-22 06:30N 51°21' E 003°52'1 1.3
2018-Apr-22 06:00N 51°21' E 003°51'4 7.5
2018-Apr-22 05:30N 51°22' E 003°45'4 7.6
2018-Apr-22 05:00N 51°25' E 003°42'2 4.4
2018-Apr-22 04:30N 51°27' E 003°42'1 1.4
2018-Apr-22 04:00N 51°27' E 003°42'1 2.8
2018-Apr-22 03:30N 51°28' E 003°40'0 0.0
2018-Apr-22 02:57N 51°28' E 003°40'0 0.0
2018-Apr-22 02:28N 51°28' E 003°40'0 0.0
2018-Apr-22 02:00N 51°28' E 003°40'0 0.0
2018-Apr-22 01:30N 51°28' E 003°40'0 0.0
2018-Apr-22 01:00N 51°28' E 003°40'0 0.0
2018-Apr-22 00:26N 51°28' E 003°40'0 0.0
2018-Apr-22 00:00N 51°28' E 003°40'0 0.0
2018-Apr-21 23:30N 51°28' E 003°40'0 0.1
2018-Apr-21 23:00N 51°28' E 003°40'0 0.1
2018-Apr-21 22:29N 51°28' E 003°40'0 0.0
2018-Apr-21 22:00N 51°28' E 003°40'0 0.0
2018-Apr-21 21:28N 51°28' E 003°40'0 0.0
2018-Apr-21 20:59N 51°28' E 003°40'0 0.0
2018-Apr-21 20:30N 51°28' E 003°40'0 0.0
2018-Apr-21 20:00N 51°28' E 003°40'0 0.0
2018-Apr-21 18:51N 51°28' E 003°40'0 0.0
2018-Apr-21 18:26N 51°28' E 003°40'0 0.0
2018-Apr-21 17:59N 51°28' E 003°40'0 0.0
2018-Apr-21 17:30N 51°28' E 003°40'0 0.0
2018-Apr-21 16:57N 51°28' E 003°40'0 0.0
2018-Apr-21 16:29N 51°28' E 003°40'0 0.0
2018-Apr-21 16:00N 51°28' E 003°40'0 0.0
2018-Apr-21 15:28N 51°28' E 003°40'0 0.1
2018-Apr-21 15:00N 51°28' E 003°40'0 0.1
2018-Apr-21 14:27N 51°28' E 003°40'0 0.0
2018-Apr-21 14:00N 51°28' E 003°40'0 0.0
2018-Apr-21 13:29N 51°28' E 003°40'0 0.0
2018-Apr-21 12:52N 51°28' E 003°40'1 1.6
2018-Apr-21 12:30N 51°27' E 003°41'1 1.3
2018-Apr-21 12:00N 51°27' E 003°40'1 1.0
2018-Apr-21 11:29N 51°28' E 003°40'0 0.0
2018-Apr-21 10:47N 51°28' E 003°40'0 0.0
2018-Apr-21 10:29N 51°28' E 003°40'0 0.0
2018-Apr-21 10:00N 51°28' E 003°40'0 0.0
2018-Apr-21 09:24N 51°28' E 003°40'0 0.5
2018-Apr-21 09:00N 51°27' E 003°41'0 0.3
2018-Apr-21 08:30N 51°28' E 003°41'0 0.2
2018-Apr-21 08:00N 51°28' E 003°40'0 0.0
2018-Apr-21 07:18N 51°28' E 003°40'0 0.0
2018-Apr-21 07:00N 51°28' E 003°40'0 0.0
2018-Apr-21 06:30N 51°28' E 003°40'0 0.0
2018-Apr-21 05:41N 51°28' E 003°40'0 0.0
2018-Apr-21 05:30N 51°28' E 003°40'0 0.0
2018-Apr-21 05:00N 51°28' E 003°40'0 0.0
2018-Apr-21 04:29N 51°28' E 003°40'0 0.0
2018-Apr-21 03:56N 51°28' E 003°40'0 0.0
2018-Apr-21 03:25N 51°28' E 003°40'0 0.0
2018-Apr-21 02:55N 51°28' E 003°40'0 0.0
2018-Apr-21 02:28N 51°28' E 003°40'0 0.0
2018-Apr-21 01:58N 51°28' E 003°40'0 0.0
2018-Apr-21 01:29N 51°28' E 003°40'0 0.0
2018-Apr-21 00:57N 51°28' E 003°40'0 0.0
2018-Apr-21 00:18N 51°28' E 003°40'0 0.0
2018-Apr-21 00:00N 51°28' E 003°40'0 0.0
2018-Apr-20 23:30N 51°28' E 003°40'0 0.0
2018-Apr-20 23:00N 51°28' E 003°40'0 0.0
2018-Apr-20 22:27N 51°28' E 003°40'0 0.0
2018-Apr-20 21:58N 51°28' E 003°40'0 0.0
2018-Apr-20 21:30N 51°28' E 003°40'0 0.0
2018-Apr-20 21:00N 51°28' E 003°40'0 0.2
2018-Apr-20 20:30N 51°28' E 003°41'3 6.8
2018-Apr-20 20:00N 51°26' E 003°36'3 6.7
2018-Apr-20 19:30N 51°27' E 003°31'4 7.4
2018-Apr-20 18:58N 51°31' E 003°27'3 7.4
2018-Apr-20 18:30N 51°34' E 003°25'7 8.5
2018-Apr-20 17:43N 51°39' E 003°19'2 9.0
2018-Apr-20 17:28N 51°41' E 003°17'4 8.9
2018-Apr-20 16:59N 51°45' E 003°13'71 9.7
2018-Apr-20 09:42N 52°40' E 001°60'212.3
2018-Apr-20 09:30N 52°41' E 001°57'611.0
2018-Apr-20 09:00N 52°46' E 001°52'610.8
2018-Apr-20 08:29N 52°50' E 001°45'510.2
2018-Apr-20 08:00N 52°53' E 001°39'510.2
2018-Apr-20 07:31N 52°56' E 001°32'510.3
2018-Apr-20 07:00N 52°59' E 001°25'5 9.6
2018-Apr-20 06:31N 53°02' E 001°19'4 8.8
2018-Apr-20 06:00N 53°04' E 001°12'41 2.6
2018-Apr-19 14:07N 53°38' E 000°34'0 1.0
2018-Apr-19 13:51N 53°38' E 000°33'0 1.3
2018-Apr-19 13:30N 53°37' E 000°33'1 1.3
2018-Apr-19 12:57N 53°37' E 000°32'0 0.7
2018-Apr-19 12:30N 53°37' E 000°31'1 0.9
2018-Apr-19 11:10N 53°36' E 000°30'0 1.0
2018-Apr-19 11:00N 53°36' E 000°30'18 2.7
2018-Apr-19 04:14N 53°28' E 000°58'1 4.3
2018-Apr-19 04:00N 53°27' E 000°60'3 4.8
2018-Apr-19 03:27N 53°26' E 001°03'3 6.0
2018-Apr-19 03:00N 53°24' E 001°06'3 6.3
2018-Apr-19 02:27N 53°21' E 001°09'3 6.4
2018-Apr-19 02:00N 53°18' E 001°11'3 6.1
2018-Apr-19 01:30N 53°16' E 001°14'3 5.9
2018-Apr-19 01:00N 53°13' E 001°17'3 5.3
2018-Apr-19 00:29N 53°12' E 001°21'2 4.6
2018-Apr-19 00:00N 53°10' E 001°24'2 4.0
2018-Apr-18 23:30N 53°09' E 001°26'2 3.2
2018-Apr-18 22:59N 53°08' E 001°28'1 2.7
2018-Apr-18 22:30N 53°07' E 001°30'1 2.3
2018-Apr-18 22:00N 53°06' E 001°31'1 2.0
2018-Apr-18 21:30N 53°05' E 001°32'1 1.9
2018-Apr-18 21:00N 53°05' E 001°33'1 1.8
2018-Apr-18 20:30N 53°04' E 001°35'1 1.8
2018-Apr-18 20:00N 53°03' E 001°36'1 2.3
2018-Apr-18 19:30N 53°03' E 001°37'1 2.9
2018-Apr-18 19:00N 53°02' E 001°39'2 3.6
2018-Apr-18 18:30N 53°00' E 001°41'2 3.8
2018-Apr-18 18:00N 52°59' E 001°44'2 4.4
2018-Apr-18 17:30N 52°58' E 001°47'3 5.2
2018-Apr-18 17:00N 52°57' E 001°51'7 5.5
2018-Apr-18 15:39N 52°54' E 002°02'1 6.1
2018-Apr-18 15:29N 52°53' E 002°03'  
2018-Apr-13 06:48N 55°28' E 006°49'3 8.1
2018-Apr-13 06:29N 55°28' E 006°53'4 8.1
2018-Apr-13 06:00N 55°28' E 007°00'4 8.1
2018-Apr-13 05:30N 55°28' E 007°07'4 8.2
2018-Apr-13 05:00N 55°27' E 007°14'4 8.3
2018-Apr-13 04:30N 55°27' E 007°22'4 8.0
2018-Apr-13 04:00N 55°27' E 007°29'4 8.3
2018-Apr-13 03:30N 55°26' E 007°36'4 8.5
2018-Apr-13 02:59N 55°26' E 007°44'4 8.7
2018-Apr-13 02:30N 55°26' E 007°51'4 8.7
2018-Apr-13 02:00N 55°25' E 007°59'4 8.6
2018-Apr-13 01:30N 55°25' E 008°06'4 8.2
2018-Apr-13 01:00N 55°25' E 008°14'4 8.5
2018-Apr-13 00:30N 55°28' E 008°20'3 6.9
2018-Apr-13 00:00N 55°28' E 008°26'0 0.6
2018-Apr-12 23:29N 55°28' E 008°26'0 0.0
2018-Apr-12 22:59N 55°28' E 008°26'0 0.0
2018-Apr-12 22:29N 55°28' E 008°26'0 0.0
2018-Apr-12 21:59N 55°28' E 008°26'0 0.0
2018-Apr-12 21:29N 55°28' E 008°26'0 0.0
2018-Apr-12 20:35N 55°28' E 008°26'0 0.0
2018-Apr-12 20:17N 55°28' E 008°26'0 0.0
2018-Apr-12 19:50N 55°28' E 008°26'0 0.0
2018-Apr-12 19:02N 55°28' E 008°26'0 0.0
2018-Apr-12 18:47N 55°28' E 008°26'0 0.0
2018-Apr-12 18:23N 55°28' E 008°26'0 0.0
2018-Apr-12 17:47N 55°28' E 008°26'0 0.0
2018-Apr-12 17:23N 55°28' E 008°26'0 0.0
2018-Apr-12 16:47N 55°28' E 008°26'0 0.0
2018-Apr-12 16:23N 55°28' E 008°26'0 0.0
2018-Apr-12 15:53N 55°28' E 008°26'0 0.0
2018-Apr-12 14:37N 55°28' E 008°26'  

Dump ship's entire track history